Time;durP1;ratioP1;P1;durP2;ratioP2;P2;SDS_P1;SDS_P2;PMS_P1;PMS_P2;Temp;Humidity;BMP_temperature;BMP_pressure;BME280_temperature;BME280_humidity;BME280_pressure;Samples;Min_cycle;Max_cycle;Signal;HPM_P1;HPM_P2
2023/07/24 00:00:14;;;;;;;6.93;4.70;;;28.40;92.70;;;;;;5061825;28;20075;-82
2023/07/24 00:02:40;;;;;;;6.18;4.63;;;28.40;92.70;;;;;;5059988;28;20033;-83
2023/07/24 00:05:06;;;;;;;6.90;4.32;;;28.40;92.80;;;;;;5071665;28;20543;-84
2023/07/24 00:07:32;;;;;;;7.13;4.72;;;28.40;92.80;;;;;;5050085;28;20067;-83
2023/07/24 00:09:57;;;;;;;6.53;4.30;;;28.40;92.90;;;;;;5070277;28;20420;-83
2023/07/24 00:12:23;;;;;;;10.48;4.40;;;28.40;92.90;;;;;;5061766;28;20037;-83
2023/07/24 00:14:49;;;;;;;5.72;4.57;;;28.40;92.90;;;;;;5073719;28;20064;-83
2023/07/24 00:17:14;;;;;;;6.60;4.00;;;28.30;92.90;;;;;;5051246;28;20120;-82
2023/07/24 00:19:40;;;;;;;7.43;4.30;;;28.30;92.90;;;;;;5063254;28;20449;-82
2023/07/24 00:22:06;;;;;;;7.28;4.82;;;28.30;92.90;;;;;;5064943;28;20029;-84
2023/07/24 00:24:32;;;;;;;8.23;4.78;;;28.30;93.00;;;;;;5069730;28;20070;-83
2023/07/24 00:26:58;;;;;;;5.95;4.47;;;28.30;93.00;;;;;;5069657;28;20017;-84
2023/07/24 00:29:23;;;;;;;8.15;5.03;;;28.30;93.10;;;;;;5065761;28;20120;-84
2023/07/24 00:31:49;;;;;;;9.13;4.63;;;28.30;93.20;;;;;;5056793;28;20497;-84
2023/07/24 00:34:15;;;;;;;8.70;4.97;;;28.30;93.20;;;;;;5072427;28;20515;-84
2023/07/24 00:36:42;;;;;;;8.60;4.93;;;28.30;93.20;;;;;;5073026;28;20032;-84
2023/07/24 00:39:07;;;;;;;8.10;5.18;;;28.20;93.20;;;;;;5075095;28;20029;-83
2023/07/24 00:41:33;;;;;;;6.93;4.55;;;28.20;93.20;;;;;;5075357;28;20033;-83
2023/07/24 00:43:59;;;;;;;8.40;4.70;;;28.10;93.20;;;;;;5074123;28;20032;-83
2023/07/24 00:46:25;;;;;;;7.38;4.47;;;28.10;93.30;;;;;;5075050;28;20028;-83
2023/07/24 00:48:53;;;;;;;7.75;4.47;;;28.00;93.30;;;;;;5063715;28;20013;-83
2023/07/24 00:51:19;;;;;;;10.23;5.28;;;28.00;93.30;;;;;;5059892;28;20032;-83
2023/07/24 00:53:47;;;;;;;6.47;4.43;;;28.00;93.40;;;;;;5057399;28;20033;-82
2023/07/24 00:56:13;;;;;;;6.25;4.32;;;27.90;93.40;;;;;;5069050;28;20025;-82
2023/07/24 00:58:39;;;;;;;9.70;4.15;;;27.90;93.40;;;;;;5070404;28;20025;-82
2023/07/24 01:01:05;;;;;;;6.30;4.25;;;27.80;93.50;;;;;;5073779;28;20032;-83
2023/07/24 01:03:35;;;;;;;5.68;3.85;;;27.90;93.60;;;;;;5071199;28;20028;-83
2023/07/24 01:06:04;;;;;;;8.32;4.30;;;27.80;93.40;;;;;;5069585;28;20083;-83
2023/07/24 01:08:30;;;;;;;6.22;4.47;;;27.80;93.40;;;;;;5070681;28;20400;-83
2023/07/24 01:11:02;;;;;;;7.38;4.13;;;27.70;93.30;;;;;;5065017;28;20076;-83
2023/07/24 01:13:33;;;;;;;6.55;4.47;;;27.70;93.60;;;;;;5061478;28;20021;-83
2023/07/24 01:16:30;;;;;;;6.97;4.45;;;27.70;93.40;;;;;;5060442;28;20037;-83
2023/07/24 01:18:56;;;;;;;5.90;4.35;;;27.70;93.40;;;;;;5065665;28;20437;-83
2023/07/24 01:21:37;;;;;;;10.25;4.65;;;27.70;93.30;;;;;;5069109;28;20036;-83
2023/07/24 01:24:10;;;;;;;11.60;5.07;;;27.70;93.30;;;;;;5063041;28;20041;-83
2023/07/24 01:26:36;;;;;;;10.13;4.78;;;27.60;93.40;;;;;;5041608;28;20424;-83
2023/07/24 01:29:01;;;;;;;7.03;4.32;;;27.60;93.40;;;;;;5068955;28;20017;-84
2023/07/24 01:31:27;;;;;;;7.45;4.90;;;27.50;93.40;;;;;;5066861;28;20021;-83
2023/07/24 01:33:53;;;;;;;9.23;5.28;;;27.50;93.40;;;;;;5074382;28;20033;-84
2023/07/24 01:36:19;;;;;;;7.53;4.53;;;27.50;93.40;;;;;;5073140;28;20118;-83
2023/07/24 01:38:46;;;;;;;5.85;4.25;;;27.50;93.40;;;;;;5071988;28;20082;-82
2023/07/24 01:41:12;;;;;;;6.57;4.18;;;27.50;93.40;;;;;;5071904;28;20482;-82
2023/07/24 01:43:38;;;;;;;9.68;5.22;;;27.50;93.40;;;;;;5071917;28;20033;-82
2023/07/24 01:46:04;;;;;;;8.70;4.68;;;27.50;93.40;;;;;;5073562;28;20059;-82
2023/07/24 01:48:29;;;;;;;7.88;5.40;;;27.40;93.40;;;;;;5071948;28;20025;-82
2023/07/24 01:50:55;;;;;;;12.13;7.10;;;27.40;93.50;;;;;;5069832;28;20410;-82
2023/07/24 01:53:21;;;;;;;6.60;4.75;;;27.30;93.50;;;;;;5063404;28;20025;-82
2023/07/24 01:55:46;;;;;;;7.65;4.55;;;27.30;93.50;;;;;;5071075;28;20056;-82
2023/07/24 01:58:12;;;;;;;9.07;4.78;;;27.30;93.50;;;;;;5069468;28;20370;-83
2023/07/24 02:00:38;;;;;;;8.10;4.35;;;27.20;93.60;;;;;;5071840;28;20049;-83
2023/07/24 02:03:04;;;;;;;8.90;4.57;;;27.20;93.50;;;;;;5074051;28;20035;-83
2023/07/24 02:05:30;;;;;;;9.02;4.93;;;27.20;93.60;;;;;;5073624;28;20459;-84
2023/07/24 02:07:55;;;;;;;7.60;4.53;;;27.20;93.50;;;;;;5057504;28;20109;-84
2023/07/24 02:10:21;;;;;;;7.20;4.47;;;27.20;93.60;;;;;;5071060;28;20106;-82
2023/07/24 02:12:47;;;;;;;9.25;4.63;;;27.20;93.60;;;;;;5054739;28;20028;-83
2023/07/24 02:15:12;;;;;;;7.18;4.50;;;27.20;93.70;;;;;;5067602;28;20470;-83
2023/07/24 02:17:38;;;;;;;8.90;4.28;;;27.20;93.70;;;;;;5063365;28;20066;-82
2023/07/24 02:20:05;;;;;;;8.65;5.07;;;27.20;93.60;;;;;;5061055;28;20044;-82
2023/07/24 02:22:30;;;;;;;8.60;5.03;;;27.20;93.60;;;;;;5071458;28;20029;-82
2023/07/24 02:24:56;;;;;;;6.45;4.93;;;27.20;93.60;;;;;;5073677;28;20036;-82
2023/07/24 02:27:34;;;;;;;9.50;5.18;;;27.10;93.60;;;;;;5072090;28;20028;-82
2023/07/24 02:30:00;;;;;;;10.68;4.97;;;27.10;93.70;;;;;;5069291;28;20020;-83
2023/07/24 02:32:26;;;;;;;5.65;4.35;;;27.10;93.80;;;;;;5058061;28;20116;-84
2023/07/24 02:34:53;;;;;;;6.32;4.80;;;27.10;93.70;;;;;;5069818;28;20167;-83
2023/07/24 02:37:19;;;;;;;6.15;4.43;;;27.10;93.80;;;;;;5061585;28;20097;-83
2023/07/24 02:39:45;;;;;;;7.95;4.43;;;27.10;93.70;;;;;;5063145;28;20032;-82
2023/07/24 02:42:11;;;;;;;7.22;4.63;;;27.10;93.70;;;;;;5065736;28;20024;-83
2023/07/24 02:44:37;;;;;;;13.05;4.72;;;27.10;93.80;;;;;;5072039;28;20028;-82
2023/07/24 02:47:03;;;;;;;7.03;4.78;;;27.10;93.80;;;;;;5071637;28;20474;-82
2023/07/24 02:49:29;;;;;;;8.43;5.03;;;27.10;93.80;;;;;;5064879;28;20104;-82
2023/07/24 02:51:55;;;;;;;8.38;5.22;;;27.00;93.80;;;;;;5067575;28;20040;-82
2023/07/24 02:54:21;;;;;;;7.78;5.28;;;27.00;93.90;;;;;;5072032;28;20090;-83
2023/07/24 02:56:46;;;;;;;9.70;5.28;;;27.00;93.90;;;;;;5041334;28;20025;-83
2023/07/24 02:59:12;;;;;;;8.77;5.35;;;27.00;94.00;;;;;;5061134;28;20102;-82
2023/07/24 03:01:58;;;;;;;7.22;4.85;;;27.00;94.00;;;;;;5085852;22;20035;-80
2023/07/24 03:04:24;;;;;;;9.38;5.43;;;26.90;94.00;;;;;;5069310;28;20105;-80
2023/07/24 03:06:50;;;;;;;8.38;5.75;;;26.90;94.10;;;;;;5069734;28;20025;-81
2023/07/24 03:09:15;;;;;;;5.82;4.13;;;26.90;94.10;;;;;;5071161;28;20496;-81
2023/07/24 03:11:41;;;;;;;7.28;5.32;;;26.90;94.20;;;;;;5072359;28;20040;-81
2023/07/24 03:14:07;;;;;;;8.73;5.65;;;26.90;94.20;;;;;;5071133;28;20024;-81
2023/07/24 03:16:34;;;;;;;7.68;4.72;;;26.90;94.30;;;;;;5070539;28;20040;-80
2023/07/24 03:18:59;;;;;;;8.02;5.75;;;26.90;94.30;;;;;;5068630;28;20024;-80
2023/07/24 03:21:25;;;;;;;8.25;5.00;;;26.80;94.30;;;;;;5065602;28;20466;-80
2023/07/24 03:23:51;;;;;;;8.55;5.20;;;26.90;94.30;;;;;;5070893;28;20466;-80
2023/07/24 03:26:16;;;;;;;9.32;5.43;;;26.80;94.30;;;;;;5070821;28;20034;-79
2023/07/24 03:28:42;;;;;;;12.15;7.22;;;26.90;94.40;;;;;;5069578;28;20047;-80
2023/07/24 03:31:08;;;;;;;12.25;6.28;;;26.80;94.40;;;;;;5058222;28;20029;-79
2023/07/24 03:33:33;;;;;;;11.52;5.60;;;26.80;94.30;;;;;;5061897;28;20047;-80
2023/07/24 03:36:03;;;;;;;6.93;6.03;;;26.80;94.40;;;;;;5055222;28;20119;-80
2023/07/24 03:38:29;;;;;;;11.77;5.97;;;26.80;94.40;;;;;;5066912;28;20362;-79
2023/07/24 03:40:54;;;;;;;9.38;5.78;;;26.70;94.50;;;;;;5064794;28;20029;-81
2023/07/24 03:43:20;;;;;;;8.48;5.47;;;26.80;94.50;;;;;;5066110;28;20075;-80
2023/07/24 03:45:46;;;;;;;9.35;5.18;;;26.70;94.50;;;;;;5061773;28;20033;-76
2023/07/24 03:48:11;;;;;;;8.75;5.70;;;26.70;94.40;;;;;;5066746;28;20020;-77
2023/07/24 03:50:37;;;;;;;6.47;5.00;;;26.70;94.40;;;;;;5054263;28;20040;-79
2023/07/24 03:53:03;;;;;;;8.30;5.38;;;26.80;94.50;;;;;;5056027;28;20067;-79
2023/07/24 03:55:28;;;;;;;9.38;5.90;;;26.70;94.50;;;;;;5070916;28;20036;-80
2023/07/24 03:57:54;;;;;;;9.30;5.18;;;26.70;94.50;;;;;;5062887;28;20029;-81
2023/07/24 04:00:20;;;;;;;11.88;5.53;;;26.70;94.60;;;;;;5039335;28;20044;-81
2023/07/24 04:02:47;;;;;;;8.80;5.57;;;26.70;94.60;;;;;;5067848;28;20056;-81
2023/07/24 04:05:12;;;;;;;7.20;4.93;;;26.70;94.60;;;;;;5057024;28;20389;-80
2023/07/24 04:07:38;;;;;;;7.55;5.65;;;26.70;94.60;;;;;;5068668;28;20035;-77
2023/07/24 04:10:04;;;;;;;9.68;5.85;;;26.70;94.60;;;;;;5070708;28;20036;-80
2023/07/24 04:12:30;;;;;;;8.85;6.22;;;26.70;94.60;;;;;;5056028;28;20021;-77
2023/07/24 04:14:55;;;;;;;11.85;5.18;;;26.70;94.70;;;;;;5069368;28;20667;-77
2023/07/24 04:17:21;;;;;;;7.63;5.25;;;26.60;94.70;;;;;;5065143;28;20043;-77
2023/07/24 04:19:47;;;;;;;9.95;6.25;;;26.60;94.70;;;;;;5069692;28;20032;-77
2023/07/24 04:22:13;;;;;;;10.18;5.50;;;26.60;94.70;;;;;;5071555;28;20106;-77
2023/07/24 04:24:38;;;;;;;9.07;5.75;;;26.60;94.70;;;;;;5070094;28;20386;-76
2023/07/24 04:27:04;;;;;;;10.27;5.60;;;26.60;94.80;;;;;;5067058;28;20063;-76
2023/07/24 04:29:30;;;;;;;9.75;5.10;;;26.60;94.80;;;;;;5065160;28;20033;-79
2023/07/24 04:31:56;;;;;;;9.65;5.30;;;26.60;94.80;;;;;;5069656;28;20020;-80
2023/07/24 04:34:21;;;;;;;6.97;5.50;;;26.70;94.90;;;;;;5070847;28;20116;-80
2023/07/24 04:36:47;;;;;;;9.95;5.32;;;26.70;94.90;;;;;;5062164;28;20028;-79
2023/07/24 04:39:13;;;;;;;6.72;5.13;;;26.70;94.90;;;;;;5066229;28;20016;-79
2023/07/24 04:41:38;;;;;;;7.85;5.10;;;26.70;94.90;;;;;;5071145;28;20115;-79
2023/07/24 04:44:04;;;;;;;9.15;5.07;;;26.80;94.90;;;;;;5072824;28;20036;-78
2023/07/24 04:46:30;;;;;;;9.00;5.60;;;26.70;94.90;;;;;;5068191;28;20429;-79
2023/07/24 04:48:55;;;;;;;8.43;5.55;;;26.80;95.00;;;;;;5072485;28;20029;-79
2023/07/24 04:51:21;;;;;;;9.35;6.07;;;26.70;94.90;;;;;;5060928;28;20028;-79
2023/07/24 04:53:46;;;;;;;10.43;5.85;;;26.80;95.00;;;;;;5074103;28;20033;-79
2023/07/24 04:56:12;;;;;;;7.25;5.47;;;26.80;94.90;;;;;;5062424;28;20493;-79
2023/07/24 04:58:38;;;;;;;7.55;5.68;;;26.80;94.90;;;;;;5064099;28;20033;-78
2023/07/24 05:01:04;;;;;;;8.88;5.28;;;26.70;94.90;;;;;;5070779;28;20028;-78
2023/07/24 05:03:30;;;;;;;11.10;6.15;;;26.70;94.90;;;;;;5072736;28;20079;-79
2023/07/24 05:05:56;;;;;;;10.38;6.18;;;26.70;95.00;;;;;;5065132;28;20017;-80
2023/07/24 05:08:22;;;;;;;9.27;5.75;;;26.70;94.90;;;;;;5067483;28;20427;-80
2023/07/24 05:10:55;;;;;;;8.55;5.07;;;26.80;95.00;;;;;;5072290;28;20032;-80
2023/07/24 05:13:20;;;;;;;6.00;4.55;;;26.80;95.00;;;;;;5071369;28;20042;-80
2023/07/24 05:15:46;;;;;;;7.63;5.30;;;26.80;95.00;;;;;;5074119;28;20029;-80
2023/07/24 05:18:12;;;;;;;8.68;5.70;;;26.80;94.90;;;;;;5062102;28;20428;-80
2023/07/24 05:20:37;;;;;;;9.10;5.57;;;26.80;94.90;;;;;;5073408;28;20055;-80
2023/07/24 05:23:03;;;;;;;8.93;5.32;;;26.80;94.90;;;;;;5071177;28;20035;-79
2023/07/24 05:25:28;;;;;;;10.65;5.75;;;26.80;94.80;;;;;;5073618;28;20031;-79
2023/07/24 05:27:54;;;;;;;8.80;5.25;;;26.80;94.90;;;;;;5064283;28;20116;-79
2023/07/24 05:30:20;;;;;;;8.18;4.97;;;26.90;94.90;;;;;;5074534;28;20055;-78
2023/07/24 05:32:45;;;;;;;7.47;5.32;;;26.90;94.80;;;;;;5069435;28;20493;-78
2023/07/24 05:35:11;;;;;;;7.68;5.05;;;26.80;94.80;;;;;;5068557;28;20475;-79
2023/07/24 05:37:37;;;;;;;8.05;5.65;;;26.90;94.80;;;;;;5055118;28;20059;-79
2023/07/24 05:40:03;;;;;;;12.73;7.57;;;26.90;94.70;;;;;;5072352;28;20537;-79
2023/07/24 05:42:28;;;;;;;24.95;7.85;;;26.90;94.70;;;;;;5071260;28;20051;-79
2023/07/24 05:44:54;;;;;;;17.88;7.78;;;26.80;94.80;;;;;;5069860;28;20104;-79
2023/07/24 05:47:20;;;;;;;16.83;9.68;;;26.70;94.90;;;;;;5050694;28;20060;-79
2023/07/24 05:49:45;;;;;;;20.30;7.95;;;26.70;94.90;;;;;;5060432;28;20025;-78
2023/07/24 05:52:11;;;;;;;7.53;5.93;;;26.70;94.90;;;;;;5065508;28;20676;-78
2023/07/24 05:54:37;;;;;;;9.00;6.47;;;26.70;94.90;;;;;;5070734;28;20471;-78
2023/07/24 05:57:02;;;;;;;11.00;5.70;;;26.70;95.00;;;;;;5069902;28;20029;-78
2023/07/24 05:59:28;;;;;;;11.90;5.97;;;26.80;94.90;;;;;;5066966;28;20032;-79
2023/07/24 06:01:54;;;;;;;9.60;6.55;;;26.80;94.70;;;;;;5070952;28;20028;-78
2023/07/24 06:04:19;;;;;;;13.20;5.60;;;26.80;94.80;;;;;;5070413;28;20508;-79
2023/07/24 06:06:45;;;;;;;10.02;5.40;;;26.90;94.70;;;;;;5056908;28;20534;-79
2023/07/24 06:09:11;;;;;;;11.02;7.43;;;26.90;94.70;;;;;;5064111;28;20462;-79
2023/07/24 06:11:36;;;;;;;11.00;6.50;;;26.90;94.40;;;;;;5070651;28;20466;-79
2023/07/24 06:14:02;;;;;;;8.20;5.72;;;26.90;94.30;;;;;;5069363;28;20027;-79
2023/07/24 06:16:27;;;;;;;9.55;5.13;;;26.90;94.40;;;;;;5059400;28;20124;-80
2023/07/24 06:18:53;;;;;;;11.45;5.78;;;26.90;94.20;;;;;;5070820;28;20462;-75
2023/07/24 06:21:19;;;;;;;8.80;4.30;;;26.90;94.20;;;;;;5065362;28;20044;-77
2023/07/24 06:23:44;;;;;;;11.63;4.75;;;26.90;94.20;;;;;;5067838;28;20033;-77
2023/07/24 06:26:10;;;;;;;8.77;4.93;;;27.00;94.40;;;;;;5072768;28;20029;-77
2023/07/24 06:28:36;;;;;;;6.80;4.60;;;27.10;94.40;;;;;;5072654;28;20081;-77
2023/07/24 06:31:01;;;;;;;11.63;5.13;;;27.10;94.40;;;;;;5070281;28;20035;-77
2023/07/24 06:33:27;;;;;;;8.98;5.55;;;27.20;94.30;;;;;;5064190;28;20132;-79
2023/07/24 06:35:53;;;;;;;9.27;4.90;;;27.30;94.30;;;;;;5056159;28;20360;-79
2023/07/24 06:38:21;;;;;;;9.18;5.60;;;27.30;94.10;;;;;;5062830;28;20393;-82
2023/07/24 06:40:46;;;;;;;8.07;6.43;;;27.40;94.10;;;;;;5060359;28;20093;-82
2023/07/24 06:43:12;;;;;;;6.40;4.90;;;27.40;94.00;;;;;;5070111;28;20486;-82
2023/07/24 06:45:38;;;;;;;13.93;6.22;;;27.40;94.10;;;;;;5068987;28;20393;-81
2023/07/24 06:48:04;;;;;;;8.65;5.70;;;27.40;94.10;;;;;;5062070;28;20049;-80
2023/07/24 06:50:29;;;;;;;10.88;5.55;;;27.40;94.10;;;;;;5071638;28;20037;-80
2023/07/24 06:52:55;;;;;;;7.53;5.03;;;27.40;94.10;;;;;;5072161;28;20110;-80
2023/07/24 06:55:21;;;;;;;6.20;4.20;;;27.40;94.10;;;;;;5073753;28;20032;-82
2023/07/24 06:57:47;;;;;;;9.15;5.05;;;27.50;94.20;;;;;;5073897;28;20032;-82
2023/07/24 07:00:13;;;;;;;6.47;4.38;;;27.60;94.20;;;;;;5073651;28;20037;-82
2023/07/24 07:02:39;;;;;;;10.27;5.28;;;27.60;94.10;;;;;;5071864;28;20052;-82
2023/07/24 07:05:05;;;;;;;6.45;4.40;;;27.60;94.00;;;;;;5055733;28;20501;-82
2023/07/24 07:07:31;;;;;;;9.73;4.63;;;27.60;94.10;;;;;;5073186;28;20145;-82
2023/07/24 07:09:57;;;;;;;6.30;4.28;;;27.60;94.10;;;;;;5069404;28;20107;-82
2023/07/24 07:12:23;;;;;;;7.65;4.68;;;27.70;94.10;;;;;;5073311;28;20055;-82
2023/07/24 07:14:48;;;;;;;7.82;4.53;;;27.70;94.10;;;;;;5073161;28;20099;-82
2023/07/24 07:17:14;;;;;;;13.90;6.80;;;27.80;94.10;;;;;;5073664;28;20029;-82
2023/07/24 07:19:40;;;;;;;16.77;6.63;;;27.90;93.70;;;;;;5073551;28;20476;-82
2023/07/24 07:22:06;;;;;;;9.70;5.60;;;27.80;93.50;;;;;;5072664;28;20024;-82
2023/07/24 07:24:31;;;;;;;7.63;4.93;;;27.80;93.70;;;;;;5073878;28;20462;-82
2023/07/24 07:26:57;;;;;;;7.57;4.82;;;27.90;93.70;;;;;;5073443;28;20142;-82
2023/07/24 07:29:23;;;;;;;7.53;4.65;;;28.00;93.60;;;;;;5073291;28;20443;-83
2023/07/24 07:31:48;;;;;;;7.30;5.03;;;28.10;93.40;;;;;;5072086;28;20052;-82
2023/07/24 07:34:14;;;;;;;7.10;4.53;;;28.10;93.30;;;;;;5072730;28;20036;-82
2023/07/24 07:36:40;;;;;;;9.57;5.57;;;28.20;93.20;;;;;;5051507;28;20029;-82
2023/07/24 07:39:06;;;;;;;7.13;4.57;;;28.20;92.90;;;;;;5070649;28;20493;-82
2023/07/24 07:41:31;;;;;;;10.93;4.78;;;28.20;92.90;;;;;;5073316;28;20082;-82
2023/07/24 07:43:57;;;;;;;6.55;4.50;;;28.30;92.80;;;;;;5072339;28;20074;-82
2023/07/24 07:46:23;;;;;;;7.50;4.53;;;28.30;93.00;;;;;;5073296;28;20032;-83
2023/07/24 07:48:49;;;;;;;8.93;5.10;;;28.40;92.70;;;;;;5072984;28;20021;-82
2023/07/24 07:51:15;;;;;;;8.88;5.05;;;28.50;92.60;;;;;;5073164;28;20440;-82
2023/07/24 07:53:40;;;;;;;8.55;4.85;;;28.50;92.30;;;;;;5072263;28;20400;-82
2023/07/24 07:56:06;;;;;;;5.45;4.07;;;28.50;92.10;;;;;;5073480;28;20493;-82
2023/07/24 07:58:32;;;;;;;5.10;3.67;;;28.60;92.20;;;;;;5073855;28;20020;-81
2023/07/24 08:00:58;;;;;;;10.52;4.85;;;28.70;92.20;;;;;;5073902;28;20078;-81
2023/07/24 08:03:24;;;;;;;7.50;5.00;;;28.80;91.40;;;;;;5071827;28;20403;-81
2023/07/24 08:05:49;;;;;;;6.35;4.40;;;28.90;91.50;;;;;;5072957;28;20064;-82
2023/07/24 08:08:15;;;;;;;6.85;4.53;;;28.90;91.10;;;;;;5065914;28;20020;-82
2023/07/24 08:10:41;;;;;;;7.88;4.75;;;28.90;91.20;;;;;;5073330;28;20032;-82
2023/07/24 08:13:09;;;;;;;10.13;4.57;;;28.90;91.00;;;;;;5071400;28;20107;-82
2023/07/24 08:15:36;;;;;;;7.55;4.50;;;29.00;90.90;;;;;;5076084;28;20034;-82
2023/07/24 08:18:03;;;;;;;6.22;4.07;;;29.00;91.00;;;;;;5059074;28;20058;-82
2023/07/24 08:20:29;;;;;;;6.97;4.13;;;29.00;90.90;;;;;;5076737;28;20425;-82
2023/07/24 08:22:55;;;;;;;8.23;4.38;;;29.00;90.90;;;;;;5068363;28;20025;-82
2023/07/24 08:25:20;;;;;;;5.53;4.20;;;29.10;91.10;;;;;;5076306;28;20489;-82
2023/07/24 08:27:46;;;;;;;6.03;4.22;;;29.30;91.30;;;;;;5076824;28;20447;-82
2023/07/24 08:30:12;;;;;;;8.27;4.32;;;29.30;91.10;;;;;;5076771;28;20028;-82
2023/07/24 08:32:39;;;;;;;12.85;5.68;;;29.40;91.00;;;;;;5075882;28;20103;-82
2023/07/24 08:35:05;;;;;;;7.03;4.57;;;29.50;90.60;;;;;;5076030;28;20103;-82
2023/07/24 08:37:31;;;;;;;5.85;4.20;;;29.60;90.70;;;;;;5074790;28;20037;-81
2023/07/24 08:39:57;;;;;;;7.95;4.28;;;29.60;90.40;;;;;;5076270;28;20111;-82
2023/07/24 08:42:23;;;;;;;8.85;4.60;;;29.60;90.30;;;;;;5073520;28;20025;-82
2023/07/24 08:44:49;;;;;;;5.80;4.20;;;29.60;90.20;;;;;;5074867;28;20470;-82
2023/07/24 08:47:15;;;;;;;6.25;4.35;;;29.60;90.30;;;;;;5075991;28;20016;-82
2023/07/24 08:49:43;;;;;;;10.63;5.00;;;29.60;90.30;;;;;;5057872;28;20363;-82
2023/07/24 08:52:09;;;;;;;6.63;4.68;;;29.70;90.40;;;;;;5057561;28;20036;-82
2023/07/24 08:54:39;;;;;;;7.07;4.13;;;29.80;90.50;;;;;;5076136;28;20024;-82
2023/07/24 08:57:07;;;;;;;6.75;4.70;;;29.90;90.50;;;;;;5075842;28;20028;-82
2023/07/24 08:59:33;;;;;;;8.32;4.28;;;29.90;90.20;;;;;;5075920;28;20021;-82
2023/07/24 09:01:59;;;;;;;9.33;4.87;;;29.90;90.20;;;;;;5076175;28;20051;-82
2023/07/24 09:04:25;;;;;;;10.77;5.18;;;29.80;90.00;;;;;;5067664;28;20162;-82
2023/07/24 09:06:51;;;;;;;9.75;5.32;;;29.70;89.90;;;;;;5075228;28;20103;-82
2023/07/24 09:09:17;;;;;;;7.00;3.90;;;29.60;90.20;;;;;;5075632;28;20032;-82
2023/07/24 09:11:50;;;;;;;6.68;4.40;;;29.60;90.30;;;;;;5075746;28;20029;-82
2023/07/24 09:14:30;;;;;;;6.00;4.32;;;29.60;90.60;;;;;;5075025;28;20115;-82
2023/07/24 09:17:06;;;;;;;9.00;4.35;;;29.50;90.90;;;;;;5075883;28;20033;-82
2023/07/24 09:19:32;;;;;;;6.82;4.10;;;29.60;91.40;;;;;;5075945;28;20111;-81
2023/07/24 09:22:17;;;;;;;7.03;3.95;;;29.70;91.10;;;;;;5075741;28;20099;-82
2023/07/24 09:24:54;;;;;;;7.07;4.25;;;29.80;91.00;;;;;;5060519;28;20515;-82
2023/07/24 09:27:20;;;;;;;7.25;4.45;;;29.70;90.80;;;;;;5075565;28;20033;-82
2023/07/24 09:29:46;;;;;;;6.70;4.07;;;29.60;90.70;;;;;;5075700;28;20028;-81
2023/07/24 09:32:23;;;;;;;6.57;4.47;;;29.60;90.60;;;;;;5075657;28;20024;-82
2023/07/24 09:34:53;;;;;;;7.55;4.25;;;29.60;90.50;;;;;;5055677;28;20025;-82
2023/07/24 09:37:30;;;;;;;13.80;4.78;;;29.60;90.50;;;;;;5069306;28;20458;-82
2023/07/24 09:39:56;;;;;;;6.28;4.07;;;29.60;90.90;;;;;;5075071;28;20560;-82
2023/07/24 09:42:36;;;;;;;8.85;4.28;;;29.70;91.00;;;;;;5074895;28;20025;-82
2023/07/24 09:45:02;;;;;;;;;;;29.80;91.10;;;;;;5055578;28;20474;-82
2023/07/24 09:47:29;;;;;;;8.68;5.13;;;29.80;91.20;;;;;;5072261;28;20006;-82
2023/07/24 09:49:55;;;;;;;6.40;4.00;;;29.80;90.90;;;;;;5075308;28;20024;-82
2023/07/24 09:52:23;;;;;;;7.68;4.15;;;29.80;90.90;;;;;;5057114;28;20059;-82
2023/07/24 09:55:19;;;;;;;7.50;3.92;;;29.90;90.80;;;;;;5055399;28;20128;-81
2023/07/24 09:57:46;;;;;;;7.53;4.00;;;30.00;90.70;;;;;;5053774;28;20041;-82
2023/07/24 10:00:12;;;;;;;12.18;4.72;;;30.00;90.50;;;;;;5055262;28;20029;-82
2023/07/24 10:02:38;;;;;;;6.00;4.03;;;30.00;90.30;;;;;;5056217;28;20080;-82
2023/07/24 10:05:05;;;;;;;7.03;3.67;;;30.00;90.40;;;;;;5075031;28;20024;-82
2023/07/24 10:07:31;;;;;;;7.72;3.92;;;30.00;90.50;;;;;;5072824;28;21707;-82
2023/07/24 10:09:58;;;;;;;6.43;3.95;;;30.10;90.50;;;;;;5069599;28;20024;-81
2023/07/24 10:12:27;;;;;;;8.55;4.10;;;30.20;90.50;;;;;;5071844;28;20111;-81
2023/07/24 10:14:55;;;;;;;7.68;4.45;;;30.20;90.30;;;;;;5073790;28;20024;-81
2023/07/24 10:17:37;;;;;;;9.48;4.28;;;30.20;90.40;;;;;;5072112;28;20498;-81
2023/07/24 10:20:07;;;;;;;8.25;4.15;;;30.30;90.60;;;;;;5072826;28;20024;-81
2023/07/24 10:22:34;;;;;;;9.98;4.50;;;30.40;90.40;;;;;;5070381;28;20025;-81
2023/07/24 10:24:59;;;;;;;9.70;4.75;;;30.40;90.10;;;;;;5069888;28;20485;-80
2023/07/24 10:27:26;;;;;;;11.90;4.55;;;30.40;90.20;;;;;;5082579;28;20032;-81
2023/07/24 10:30:02;;;;;;;7.88;4.40;;;30.40;90.00;;;;;;5064317;28;20028;-81
2023/07/24 10:32:28;;;;;;;12.40;4.93;;;30.30;90.00;;;;;;5073011;28;20070;-81
2023/07/24 10:35:11;;;;;;;9.52;4.35;;;30.30;89.90;;;;;;5067984;28;20365;-81
2023/07/24 10:37:37;;;;;;;7.38;4.32;;;30.30;90.00;;;;;;5072198;28;20432;-81
2023/07/24 10:40:04;;;;;;;12.32;5.35;;;30.30;89.00;;;;;;5070497;28;20028;-81
2023/07/24 10:42:30;;;;;;;6.85;4.50;;;30.40;89.20;;;;;;5072289;28;20103;-81
2023/07/24 10:45:07;;;;;;;6.60;4.43;;;30.50;89.70;;;;;;5070440;28;20062;-80
2023/07/24 10:47:33;;;;;;;8.32;4.93;;;30.50;88.80;;;;;;5069067;28;20025;-81
2023/07/24 10:50:01;;;;;;;8.90;4.82;;;30.50;88.60;;;;;;5072293;28;20033;-81
2023/07/24 10:52:33;;;;;;;9.20;5.10;;;30.50;88.70;;;;;;5065101;28;20487;-81
2023/07/24 10:55:03;;;;;;;12.45;6.25;;;30.40;88.70;;;;;;5062328;28;20383;-81
2023/07/24 10:57:29;;;;;;;11.32;4.35;;;30.30;88.60;;;;;;5068881;28;20064;-81
2023/07/24 10:59:55;;;;;;;11.10;5.32;;;30.30;89.10;;;;;;5055593;28;20404;-81
2023/07/24 11:02:21;;;;;;;8.20;4.20;;;30.30;88.20;;;;;;5059793;28;20029;-81
2023/07/24 11:04:47;;;;;;;7.05;4.57;;;30.20;89.00;;;;;;5072013;28;20032;-81
2023/07/24 11:07:13;;;;;;;6.63;4.15;;;30.20;89.10;;;;;;5069439;28;20066;-80
2023/07/24 11:09:40;;;;;;;7.70;4.60;;;30.30;89.00;;;;;;5073564;28;20021;-79
2023/07/24 11:12:15;;;;;;;11.68;4.68;;;30.30;88.80;;;;;;5071384;28;20024;-81
2023/07/24 11:14:53;;;;;;;9.30;5.40;;;30.30;88.30;;;;;;5067930;28;20027;-81
2023/07/24 11:17:19;;;;;;;7.63;5.05;;;30.40;87.80;;;;;;5072598;28;20033;-82
2023/07/24 11:19:45;;;;;;;9.07;4.38;;;30.40;87.50;;;;;;5073867;28;20374;-82
2023/07/24 11:22:11;;;;;;;11.30;5.35;;;30.40;87.50;;;;;;5073448;28;20029;-80
2023/07/24 11:24:45;;;;;;;12.40;5.72;;;30.40;87.90;;;;;;5072696;28;20028;-82
2023/07/24 11:27:16;;;;;;;8.05;4.78;;;30.40;87.70;;;;;;5066171;28;20035;-82
2023/07/24 11:29:47;;;;;;;8.98;4.47;;;30.40;87.30;;;;;;5073950;28;20051;-82
2023/07/24 11:32:13;;;;;;;9.00;5.90;;;30.40;87.70;;;;;;5071158;28;20024;-82
2023/07/24 11:34:38;;;;;;;16.35;6.65;;;30.40;87.90;;;;;;5073789;28;20025;-82
2023/07/24 11:37:05;;;;;;;8.75;4.65;;;30.40;87.10;;;;;;5072264;28;20016;-82
2023/07/24 11:39:31;;;;;;;9.45;4.95;;;30.30;87.70;;;;;;5076944;28;20073;-82
2023/07/24 11:41:59;;;;;;;6.60;4.70;;;30.30;87.80;;;;;;5077251;28;20033;-83
2023/07/24 11:44:28;;;;;;;8.73;5.38;;;30.30;88.10;;;;;;5066889;28;20020;-82
2023/07/24 11:47:04;;;;;;;9.25;4.88;;;30.20;88.00;;;;;;5076775;28;20055;-82
2023/07/24 11:49:31;;;;;;;6.55;4.35;;;30.10;88.10;;;;;;5086416;28;20109;-83
2023/07/24 11:52:04;;;;;;;9.38;5.70;;;30.00;88.20;;;;;;5072691;28;20032;-82
2023/07/24 11:54:30;;;;;;;7.53;4.80;;;30.00;88.20;;;;;;5074059;28;20033;-82
2023/07/24 11:56:56;;;;;;;5.70;3.90;;;29.90;88.40;;;;;;5073231;28;20028;-81
2023/07/24 11:59:22;;;;;;;9.35;4.93;;;30.00;88.60;;;;;;5063829;28;20378;-81
2023/07/24 12:01:48;;;;;;;7.82;4.75;;;29.90;88.60;;;;;;5070918;28;20044;-81
2023/07/24 12:04:15;;;;;;;7.82;4.85;;;30.00;88.80;;;;;;5071505;28;20137;-81
2023/07/24 12:06:41;;;;;;;14.43;6.30;;;30.20;89.10;;;;;;5073123;28;20020;-80
2023/07/24 12:09:08;;;;;;;11.95;6.32;;;30.20;88.00;;;;;;5079960;28;20351;-81
2023/07/24 12:11:39;;;;;;;8.27;5.07;;;30.60;88.10;;;;;;5070913;28;20032;-81
2023/07/24 12:14:04;;;;;;;8.98;5.38;;;30.90;87.60;;;;;;5072468;28;20020;-80
2023/07/24 12:16:31;;;;;;;9.93;5.25;;;31.00;86.90;;;;;;5072146;28;20443;-80
2023/07/24 12:18:56;;;;;;;11.80;5.20;;;31.00;86.10;;;;;;5050504;28;20040;-82
2023/07/24 12:21:22;;;;;;;8.07;5.28;;;30.90;85.70;;;;;;5070979;28;20032;-81
2023/07/24 12:23:48;;;;;;;10.10;5.07;;;30.90;85.80;;;;;;5072073;28;20408;-81
2023/07/24 12:26:14;;;;;;;6.18;4.80;;;30.80;85.90;;;;;;5062558;28;20466;-81
2023/07/24 12:28:39;;;;;;;8.88;5.10;;;30.70;86.20;;;;;;5072034;28;20021;-80
2023/07/24 12:31:06;;;;;;;6.60;4.28;;;30.60;86.80;;;;;;5071518;28;20071;-83
2023/07/24 12:33:31;;;;;;;8.18;5.30;;;30.50;86.70;;;;;;5066932;28;20036;-81
2023/07/24 12:35:57;;;;;;;9.23;4.93;;;30.50;86.90;;;;;;5060253;28;20045;-81
2023/07/24 12:38:22;;;;;;;9.95;5.45;;;30.50;86.60;;;;;;5070931;28;20037;-81
2023/07/24 12:40:48;;;;;;;7.97;5.15;;;30.60;87.20;;;;;;5070216;28;20435;-82
2023/07/24 12:43:15;;;;;;;7.57;4.25;;;30.90;87.90;;;;;;5070974;28;20028;-82